VOE3833 LEMH-LEZG
Flight info
| Callsign | VOE3833 |
|---|---|
| Flight time | 0h 48m |
| Altitude | 24000 |
| Route | MJV N861 ADX N863 PAPOS Y80 MLA |
| Aircraft | A319/M-SDE3FGHIRWY/LB1 |
Departure
| Time | 2026-04-29 10:13 |
|---|---|
| Airport | Menorca Airport (LEMH) |
Arrival
| Time | 2026-04-29 11:02 |
|---|---|
| Airport | Zaragoza Airport (LEZG) |
| Time | Latitude | Longitude | Altitude | Speed | Heading |
|---|---|---|---|---|---|
| 2026-04-29 09:51 | 39.86424 | 4.22398 | 274 ft | 0 kts | 98° |
| 2026-04-29 10:04 | 39.86425 | 4.22389 | 274 ft | 2 kts | 97° |
| 2026-04-29 10:05 | 39.86427 | 4.22369 | 275 ft | 2 kts | 98° |
| 2026-04-29 10:05 | 39.86430 | 4.22350 | 275 ft | 2 kts | 98° |
| 2026-04-29 10:05 | 39.86431 | 4.22330 | 276 ft | 2 kts | 98° |
| 2026-04-29 10:05 | 39.86435 | 4.22315 | 276 ft | 1 kts | 138° |
| 2026-04-29 10:06 | 39.86444 | 4.22310 | 276 ft | 0 kts | 183° |
| 2026-04-29 10:06 | 39.86450 | 4.22312 | 276 ft | 1 kts | 191° |
| 2026-04-29 10:06 | 39.86452 | 4.22312 | 276 ft | 0 kts | 189° |
| 2026-04-29 10:08 | 39.86445 | 4.22311 | 276 ft | 2 kts | 189° |
| 2026-04-29 10:08 | 39.86419 | 4.22306 | 276 ft | 5 kts | 187° |
| 2026-04-29 10:08 | 39.86375 | 4.22297 | 275 ft | 7 kts | 188° |
| 2026-04-29 10:09 | 39.86317 | 4.22286 | 275 ft | 8 kts | 189° |
| 2026-04-29 10:09 | 39.86254 | 4.22273 | 276 ft | 9 kts | 189° |
| 2026-04-29 10:09 | 39.86189 | 4.22247 | 276 ft | 10 kts | 233° |
| 2026-04-29 10:09 | 39.86190 | 4.22155 | 277 ft | 10 kts | 279° |
| 2026-04-29 10:10 | 39.86169 | 4.22087 | 280 ft | 8 kts | 201° |
| 2026-04-29 10:10 | 39.86102 | 4.22071 | 280 ft | 11 kts | 189° |
| 2026-04-29 10:10 | 39.86008 | 4.22052 | 281 ft | 15 kts | 189° |
| 2026-04-29 10:10 | 39.85886 | 4.22027 | 281 ft | 19 kts | 189° |
| 2026-04-29 10:11 | 39.85736 | 4.21996 | 278 ft | 23 kts | 188° |
| 2026-04-29 10:11 | 39.85563 | 4.21960 | 276 ft | 26 kts | 189° |
| 2026-04-29 10:11 | 39.85375 | 4.21921 | 272 ft | 28 kts | 191° |
| 2026-04-29 10:11 | 39.85197 | 4.21886 | 268 ft | 21 kts | 188° |
| 2026-04-29 10:12 | 39.85125 | 4.21831 | 266 ft | 12 kts | 270° |
| 2026-04-29 10:12 | 39.85139 | 4.21715 | 267 ft | 13 kts | 278° |
| 2026-04-29 10:12 | 39.85197 | 4.21647 | 268 ft | 13 kts | 7° |
| 2026-04-29 10:12 | 39.85288 | 4.21666 | 270 ft | 15 kts | 9° |
| 2026-04-29 10:13 | 39.85563 | 4.21722 | 277 ft | 75 kts | 10° |
| 2026-04-29 10:13 | 39.86315 | 4.21877 | 289 ft | 141 kts | 9° |
| 2026-04-29 10:13 | 39.87427 | 4.22118 | 523 ft | 174 kts | 12° |
| 2026-04-29 10:13 | 39.88606 | 4.22361 | 1261 ft | 174 kts | 12° |
| 2026-04-29 10:14 | 39.89779 | 4.22592 | 2125 ft | 169 kts | 13° |
| 2026-04-29 10:14 | 39.90963 | 4.22839 | 2682 ft | 181 kts | 13° |
| 2026-04-29 10:14 | 39.92259 | 4.23115 | 3165 ft | 198 kts | 13° |
| 2026-04-29 10:14 | 39.93677 | 4.23413 | 3604 ft | 220 kts | 12° |
| 2026-04-29 10:15 | 39.95264 | 4.23741 | 4160 ft | 239 kts | 11° |
| 2026-04-29 10:15 | 39.96964 | 4.24088 | 4723 ft | 257 kts | 11° |
| 2026-04-29 10:15 | 39.98785 | 4.24405 | 5300 ft | 275 kts | 2° |
| 2026-04-29 10:15 | 40.00651 | 4.23804 | 6044 ft | 286 kts | 328° |
| 2026-04-29 10:16 | 40.02002 | 4.21958 | 6949 ft | 288 kts | 296° |
| 2026-04-29 10:16 | 40.02459 | 4.20342 | 7577 ft | 287 kts | 284° |
| 2026-04-29 10:16 | 40.03150 | 4.17019 | 8765 ft | 291 kts | 284° |
| 2026-04-29 10:16 | 40.03700 | 4.14484 | 9660 ft | 294 kts | 284° |
| 2026-04-29 10:17 | 40.04272 | 4.11907 | 10524 ft | 299 kts | 285° |
| 2026-04-29 10:17 | 40.04869 | 4.09249 | 11038 ft | 315 kts | 285° |
| 2026-04-29 10:17 | 40.05499 | 4.06461 | 11453 ft | 333 kts | 285° |
| 2026-04-29 10:17 | 40.06174 | 4.03498 | 11821 ft | 351 kts | 285° |
| 2026-04-29 10:18 | 40.06895 | 4.00339 | 12262 ft | 366 kts | 285° |
| 2026-04-29 10:18 | 40.07623 | 3.97156 | 12987 ft | 371 kts | 285° |
| 2026-04-29 10:18 | 40.08357 | 3.93946 | 13761 ft | 373 kts | 285° |
| 2026-04-29 10:18 | 40.09099 | 3.90699 | 14512 ft | 376 kts | 285° |
| 2026-04-29 10:19 | 40.09843 | 3.87436 | 15194 ft | 380 kts | 285° |
| 2026-04-29 10:19 | 40.10603 | 3.84093 | 15856 ft | 384 kts | 285° |
| 2026-04-29 10:19 | 40.11358 | 3.80767 | 16496 ft | 388 kts | 285° |
| 2026-04-29 10:19 | 40.12126 | 3.77382 | 17123 ft | 392 kts | 285° |
| 2026-04-29 10:20 | 40.12900 | 3.73964 | 17734 ft | 396 kts | 285° |
| 2026-04-29 10:20 | 40.13681 | 3.70514 | 18311 ft | 400 kts | 285° |
| 2026-04-29 10:20 | 40.14462 | 3.67044 | 18871 ft | 404 kts | 285° |
| 2026-04-29 10:20 | 40.15264 | 3.63482 | 19417 ft | 407 kts | 285° |
| 2026-04-29 10:21 | 40.16061 | 3.59945 | 19944 ft | 411 kts | 285° |
| 2026-04-29 10:21 | 40.16865 | 3.56368 | 20460 ft | 414 kts | 285° |
| 2026-04-29 10:21 | 40.17681 | 3.52724 | 20972 ft | 418 kts | 285° |
| 2026-04-29 10:21 | 40.18494 | 3.49097 | 21470 ft | 421 kts | 285° |
| 2026-04-29 10:22 | 40.19321 | 3.45397 | 21964 ft | 424 kts | 285° |
| 2026-04-29 10:22 | 40.20148 | 3.41684 | 22418 ft | 428 kts | 286° |
| 2026-04-29 10:22 | 40.20972 | 3.37970 | 22863 ft | 431 kts | 287° |
| 2026-04-29 10:22 | 40.21805 | 3.34214 | 23328 ft | 434 kts | 286° |
| 2026-04-29 10:23 | 40.22653 | 3.30408 | 23802 ft | 436 kts | 286° |
| 2026-04-29 10:23 | 40.23496 | 3.26624 | 24309 ft | 437 kts | 286° |
| 2026-04-29 10:23 | 40.24357 | 3.22748 | 24805 ft | 439 kts | 286° |
| 2026-04-29 10:23 | 40.25207 | 3.18915 | 25256 ft | 441 kts | 286° |
| 2026-04-29 10:24 | 40.26059 | 3.15057 | 25641 ft | 444 kts | 286° |
| 2026-04-29 10:24 | 40.26907 | 3.11199 | 25926 ft | 447 kts | 286° |
| 2026-04-29 10:24 | 40.27770 | 3.07272 | 25947 ft | 448 kts | 286° |
| 2026-04-29 10:24 | 40.28622 | 3.03386 | 25948 ft | 448 kts | 286° |
| 2026-04-29 10:25 | 40.29477 | 2.99476 | 25950 ft | 449 kts | 286° |
| 2026-04-29 10:25 | 40.30337 | 2.95541 | 25946 ft | 449 kts | 286° |
| 2026-04-29 10:25 | 40.31198 | 2.91603 | 25946 ft | 448 kts | 286° |
| 2026-04-29 10:25 | 40.32046 | 2.87704 | 25952 ft | 448 kts | 286° |
| 2026-04-29 10:26 | 40.32903 | 2.83772 | 26219 ft | 452 kts | 285° |
| 2026-04-29 10:26 | 40.33767 | 2.79797 | 26695 ft | 453 kts | 285° |
| 2026-04-29 10:26 | 40.34629 | 2.75821 | 27070 ft | 455 kts | 285° |
| 2026-04-29 10:26 | 40.35493 | 2.71818 | 27397 ft | 459 kts | 285° |
| 2026-04-29 10:27 | 40.37230 | 2.63759 | 28169 ft | 461 kts | 285° |
| 2026-04-29 10:27 | 40.38090 | 2.59758 | 28662 ft | 459 kts | 285° |
| 2026-04-29 10:27 | 40.38956 | 2.55720 | 29142 ft | 459 kts | 285° |
| 2026-04-29 10:28 | 40.39805 | 2.51760 | 29581 ft | 458 kts | 285° |
| 2026-04-29 10:28 | 40.40671 | 2.47706 | 29911 ft | 458 kts | 285° |
| 2026-04-29 10:28 | 40.41524 | 2.43703 | 29929 ft | 458 kts | 285° |
| 2026-04-29 10:29 | 40.43229 | 2.35695 | 29934 ft | 458 kts | 285° |
| 2026-04-29 10:29 | 40.44930 | 2.27674 | 29936 ft | 457 kts | 284° |
| 2026-04-29 10:30 | 40.46624 | 2.19654 | 29937 ft | 457 kts | 284° |
| 2026-04-29 10:30 | 40.48316 | 2.11618 | 29940 ft | 456 kts | 284° |
| 2026-04-29 10:31 | 40.49997 | 2.03601 | 29949 ft | 456 kts | 284° |
| 2026-04-29 10:31 | 40.51663 | 1.95620 | 29951 ft | 456 kts | 284° |
| 2026-04-29 10:32 | 40.53328 | 1.87617 | 29952 ft | 456 kts | 284° |
| 2026-04-29 10:32 | 40.54996 | 1.79563 | 29953 ft | 455 kts | 284° |
| 2026-04-29 10:33 | 40.56638 | 1.71603 | 29952 ft | 455 kts | 284° |
| 2026-04-29 10:33 | 40.58293 | 1.63557 | 29955 ft | 455 kts | 284° |
| 2026-04-29 10:34 | 40.59931 | 1.55560 | 29956 ft | 455 kts | 284° |
| 2026-04-29 10:34 | 40.61733 | 1.47611 | 29958 ft | 456 kts | 288° |
| 2026-04-29 10:35 | 40.64150 | 1.39924 | 29960 ft | 457 kts | 295° |
| 2026-04-29 10:35 | 40.67078 | 1.32527 | 29961 ft | 457 kts | 296° |
| 2026-04-29 10:36 | 40.70072 | 1.25152 | 29962 ft | 457 kts | 296° |
| 2026-04-29 10:36 | 40.73048 | 1.17763 | 29959 ft | 457 kts | 296° |
| 2026-04-29 10:37 | 40.76000 | 1.10394 | 29965 ft | 456 kts | 296° |
| 2026-04-29 10:37 | 40.78945 | 1.03022 | 29969 ft | 457 kts | 296° |
| 2026-04-29 10:38 | 40.81912 | 0.95578 | 29964 ft | 457 kts | 296° |
| 2026-04-29 10:38 | 40.84850 | 0.88186 | 29968 ft | 456 kts | 296° |
| 2026-04-29 10:39 | 40.87776 | 0.80810 | 29965 ft | 456 kts | 296° |
| 2026-04-29 10:39 | 40.90709 | 0.73395 | 29966 ft | 458 kts | 296° |
| 2026-04-29 10:40 | 40.93660 | 0.65918 | 29964 ft | 458 kts | 296° |
| 2026-04-29 10:40 | 40.96592 | 0.58465 | 29962 ft | 458 kts | 296° |
| 2026-04-29 10:41 | 40.99516 | 0.51013 | 29619 ft | 457 kts | 295° |
| 2026-04-29 10:41 | 41.00960 | 0.47328 | 29098 ft | 454 kts | 296° |
| 2026-04-29 10:41 | 41.02400 | 0.43649 | 28432 ft | 450 kts | 296° |
| 2026-04-29 10:41 | 41.03829 | 0.39996 | 27706 ft | 449 kts | 295° |
| 2026-04-29 10:42 | 41.05256 | 0.36341 | 26950 ft | 448 kts | 296° |
| 2026-04-29 10:42 | 41.06691 | 0.32658 | 26154 ft | 447 kts | 295° |
| 2026-04-29 10:42 | 41.08104 | 0.29026 | 25530 ft | 445 kts | 295° |
| 2026-04-29 10:42 | 41.09506 | 0.25418 | 25017 ft | 443 kts | 295° |
| 2026-04-29 10:43 | 41.10920 | 0.21775 | 24475 ft | 439 kts | 295° |
| 2026-04-29 10:43 | 41.12244 | 0.18180 | 23942 ft | 434 kts | 292° |
| 2026-04-29 10:43 | 41.13398 | 0.14552 | 23412 ft | 429 kts | 289° |
| 2026-04-29 10:43 | 41.14397 | 0.10864 | 22895 ft | 424 kts | 286° |
| 2026-04-29 10:44 | 41.15336 | 0.07157 | 22361 ft | 420 kts | 286° |
| 2026-04-29 10:44 | 41.16243 | 0.03533 | 21836 ft | 416 kts | 286° |
| 2026-04-29 10:44 | 41.17142 | -0.00066 | 21309 ft | 412 kts | 285° |
| 2026-04-29 10:44 | 41.18035 | -0.03642 | 20796 ft | 408 kts | 286° |
| 2026-04-29 10:45 | 41.18921 | -0.07187 | 20271 ft | 404 kts | 285° |
| 2026-04-29 10:45 | 41.19798 | -0.10702 | 19764 ft | 401 kts | 286° |
| 2026-04-29 10:45 | 41.20665 | -0.14174 | 19249 ft | 397 kts | 285° |
| 2026-04-29 10:45 | 41.21523 | -0.17613 | 18736 ft | 393 kts | 285° |
| 2026-04-29 10:46 | 41.22375 | -0.21035 | 18218 ft | 390 kts | 285° |
| 2026-04-29 10:46 | 41.23226 | -0.24463 | 17703 ft | 387 kts | 285° |
| 2026-04-29 10:46 | 41.24059 | -0.27817 | 17198 ft | 384 kts | 285° |
| 2026-04-29 10:46 | 41.24891 | -0.31177 | 16669 ft | 382 kts | 285° |
| 2026-04-29 10:47 | 41.25716 | -0.34509 | 16186 ft | 380 kts | 285° |
| 2026-04-29 10:47 | 41.26528 | -0.37795 | 15671 ft | 378 kts | 285° |
| 2026-04-29 10:47 | 41.27342 | -0.41096 | 15143 ft | 377 kts | 285° |
| 2026-04-29 10:47 | 41.28158 | -0.44408 | 14601 ft | 375 kts | 285° |
| 2026-04-29 10:48 | 41.28962 | -0.47675 | 14101 ft | 373 kts | 285° |
| 2026-04-29 10:48 | 41.29765 | -0.50941 | 13588 ft | 371 kts | 285° |
| 2026-04-29 10:48 | 41.30561 | -0.54187 | 13085 ft | 369 kts | 285° |
| 2026-04-29 10:48 | 41.31343 | -0.57381 | 12584 ft | 366 kts | 285° |
| 2026-04-29 10:49 | 41.32126 | -0.60575 | 12091 ft | 363 kts | 285° |
| 2026-04-29 10:49 | 41.32905 | -0.63764 | 11593 ft | 361 kts | 285° |
| 2026-04-29 10:49 | 41.33673 | -0.66911 | 11102 ft | 357 kts | 285° |
| 2026-04-29 10:49 | 41.34420 | -0.69969 | 10883 ft | 345 kts | 285° |
| 2026-04-29 10:50 | 41.35154 | -0.72971 | 10674 ft | 332 kts | 285° |
| 2026-04-29 10:50 | 41.35852 | -0.75829 | 10492 ft | 320 kts | 285° |
| 2026-04-29 10:50 | 41.36521 | -0.78576 | 10322 ft | 308 kts | 285° |
| 2026-04-29 10:50 | 41.37164 | -0.81224 | 10175 ft | 297 kts | 285° |
| 2026-04-29 10:51 | 41.37791 | -0.83803 | 10022 ft | 287 kts | 285° |
| 2026-04-29 10:51 | 41.38388 | -0.86272 | 9816 ft | 280 kts | 285° |
| 2026-04-29 10:51 | 41.38982 | -0.88729 | 9464 ft | 279 kts | 285° |
| 2026-04-29 10:51 | 41.39574 | -0.91184 | 9118 ft | 278 kts | 285° |
| 2026-04-29 10:52 | 41.40159 | -0.93611 | 8779 ft | 277 kts | 285° |
| 2026-04-29 10:52 | 41.40753 | -0.96074 | 8450 ft | 276 kts | 285° |
| 2026-04-29 10:52 | 41.41334 | -0.98490 | 8115 ft | 275 kts | 285° |
| 2026-04-29 10:52 | 41.41911 | -1.00886 | 7797 ft | 274 kts | 285° |
| 2026-04-29 10:53 | 41.42491 | -1.03297 | 7472 ft | 273 kts | 285° |
| 2026-04-29 10:53 | 41.43071 | -1.05704 | 7135 ft | 272 kts | 285° |
| 2026-04-29 10:53 | 41.43654 | -1.08080 | 6804 ft | 272 kts | 289° |
| 2026-04-29 10:53 | 41.44707 | -1.10146 | 6434 ft | 276 kts | 319° |
| 2026-04-29 10:54 | 41.46421 | -1.11281 | 6102 ft | 277 kts | 345° |
| 2026-04-29 10:54 | 41.48284 | -1.11829 | 5797 ft | 275 kts | 348° |
| 2026-04-29 10:54 | 41.50173 | -1.12359 | 5481 ft | 275 kts | 348° |
| 2026-04-29 10:54 | 41.52021 | -1.12890 | 5163 ft | 274 kts | 348° |
| 2026-04-29 10:55 | 41.53875 | -1.13438 | 4835 ft | 274 kts | 348° |
| 2026-04-29 10:55 | 41.55742 | -1.14001 | 4516 ft | 273 kts | 348° |
| 2026-04-29 10:55 | 41.57582 | -1.14563 | 4197 ft | 272 kts | 348° |
| 2026-04-29 10:55 | 41.59419 | -1.15126 | 3889 ft | 271 kts | 349° |
| 2026-04-29 10:56 | 41.61232 | -1.15685 | 3835 ft | 257 kts | 349° |
| 2026-04-29 10:56 | 41.62928 | -1.16208 | 3807 ft | 244 kts | 349° |
| 2026-04-29 10:56 | 41.64544 | -1.16707 | 3772 ft | 231 kts | 349° |
| 2026-04-29 10:56 | 41.66067 | -1.17179 | 3737 ft | 219 kts | 349° |
| 2026-04-29 10:57 | 41.67495 | -1.17621 | 3697 ft | 207 kts | 349° |
| 2026-04-29 10:57 | 41.68855 | -1.18043 | 3675 ft | 193 kts | 350° |
| 2026-04-29 10:57 | 41.70118 | -1.18435 | 3512 ft | 176 kts | 351° |
| 2026-04-29 10:57 | 41.71271 | -1.18733 | 3354 ft | 165 kts | 5° |
| 2026-04-29 10:58 | 41.72229 | -1.18184 | 3041 ft | 146 kts | 65° |
| 2026-04-29 10:58 | 41.72352 | -1.16940 | 2904 ft | 137 kts | 110° |
| 2026-04-29 10:58 | 41.71928 | -1.15819 | 2786 ft | 133 kts | 119° |
| 2026-04-29 10:58 | 41.71507 | -1.14731 | 2608 ft | 129 kts | 117° |
| 2026-04-29 10:59 | 41.71110 | -1.13660 | 2432 ft | 128 kts | 120° |
| 2026-04-29 10:59 | 41.70673 | -1.12657 | 2151 ft | 125 kts | 121° |
| 2026-04-29 10:59 | 41.70244 | -1.11646 | 1758 ft | 127 kts | 118° |
| 2026-04-29 10:59 | 41.69822 | -1.10635 | 1453 ft | 121 kts | 120° |
| 2026-04-29 11:00 | 41.69415 | -1.09694 | 1198 ft | 116 kts | 124° |
| 2026-04-29 11:00 | 41.68956 | -1.08729 | 1144 ft | 126 kts | 120° |
| 2026-04-29 11:00 | 41.68514 | -1.07706 | 1132 ft | 127 kts | 120° |
| 2026-04-29 11:00 | 41.68084 | -1.06665 | 1111 ft | 127 kts | 121° |
| 2026-04-29 11:01 | 41.67642 | -1.05639 | 1049 ft | 127 kts | 120° |
| 2026-04-29 11:01 | 41.67200 | -1.04616 | 965 ft | 127 kts | 120° |
| 2026-04-29 11:01 | 41.66750 | -1.03615 | 845 ft | 121 kts | 121° |
| 2026-04-29 11:01 | 41.66387 | -1.02787 | 844 ft | 79 kts | 120° |
| 2026-04-29 11:02 | 41.66186 | -1.02324 | 847 ft | 46 kts | 120° |
| 2026-04-29 11:02 | 41.66037 | -1.01982 | 846 ft | 31 kts | 120° |
| 2026-04-29 11:02 | 41.65958 | -1.01794 | 845 ft | 21 kts | 120° |
| 2026-04-29 11:02 | 41.65944 | -1.01668 | 844 ft | 14 kts | 56° |
| 2026-04-29 11:03 | 41.66040 | -1.01582 | 838 ft | 19 kts | 31° |
| 2026-04-29 11:03 | 41.66129 | -1.01489 | 833 ft | 17 kts | 68° |
| 2026-04-29 11:03 | 41.66162 | -1.01328 | 829 ft | 16 kts | 74° |
| 2026-04-29 11:03 | 41.66190 | -1.01185 | 825 ft | 16 kts | 76° |
| 2026-04-29 11:04 | 41.66217 | -1.01054 | 822 ft | 13 kts | 74° |
| 2026-04-29 11:04 | 41.66208 | -1.00968 | 821 ft | 8 kts | 126° |
| 2026-04-29 11:04 | 41.66199 | -1.00911 | 822 ft | 7 kts | 47° |
| 2026-04-29 11:04 | 41.66247 | -1.00864 | 821 ft | 8 kts | 36° |
| 2026-04-29 11:05 | 41.66270 | -1.00855 | 820 ft | 3 kts | 309° |
| 2026-04-29 11:05 | 41.66274 | -1.00864 | 820 ft | 0 kts | 291° |